Time;durP1;ratioP1;P1;durP2;ratioP2;P2;SDS_P1;SDS_P2;PMS_P1;PMS_P2;Temp;Humidity;BMP_temperature;BMP_pressure;BME280_temperature;BME280_humidity;BME280_pressure;Samples;Min_cycle;Max_cycle;Signal;HPM_P1;HPM_P2
2022/11/28 00:01:47;;;;;;;2.00;1.70;;;18.30;57.60;;;;;;5105012;27;43390;-59
2022/11/28 00:04:14;;;;;;;1.88;1.70;;;18.30;57.60;;;;;;5107616;27;43448;-59
2022/11/28 00:06:45;;;;;;;1.52;1.42;;;18.20;57.60;;;;;;5104533;27;43592;-59
2022/11/28 00:09:13;;;;;;;2.30;1.50;;;18.20;57.60;;;;;;5104103;27;44705;-59
2022/11/28 00:11:42;;;;;;;1.75;1.65;;;18.20;57.60;;;;;;5105352;27;43699;-59
2022/11/28 00:14:10;;;;;;;1.55;1.45;;;18.20;57.70;;;;;;5107437;27;43412;-59
2022/11/28 00:16:37;;;;;;;1.73;1.63;;;18.20;57.70;;;;;;5105459;27;43438;-59
2022/11/28 00:19:07;;;;;;;1.77;1.67;;;18.20;57.70;;;;;;5083871;27;44041;-59
2022/11/28 00:21:34;;;;;;;1.67;1.58;;;18.20;57.60;;;;;;5102772;27;43771;-59
2022/11/28 00:24:02;;;;;;;1.80;1.70;;;18.20;57.70;;;;;;5106657;27;43425;-59
2022/11/28 00:26:33;;;;;;;1.70;1.60;;;18.20;57.70;;;;;;5102679;27;43510;-59
2022/11/28 00:29:02;;;;;;;1.70;1.60;;;18.20;57.80;;;;;;5102608;27;44077;-59
2022/11/28 00:31:32;;;;;;;1.85;1.45;;;18.20;57.70;;;;;;5105062;27;43425;-59
2022/11/28 00:34:00;;;;;;;1.42;1.33;;;18.20;57.70;;;;;;5102706;27;43362;-60
2022/11/28 00:36:28;;;;;;;1.35;1.35;;;18.20;57.70;;;;;;5104300;27;43423;-59
2022/11/28 00:38:56;;;;;;;1.88;1.40;;;18.10;57.70;;;;;;5104279;27;43894;-59
2022/11/28 00:41:27;;;;;;;1.85;1.75;;;18.10;57.70;;;;;;5105043;27;43411;-59
2022/11/28 00:43:55;;;;;;;1.80;1.70;;;18.10;57.60;;;;;;5106440;27;43436;-59
2022/11/28 00:46:23;;;;;;;1.52;1.42;;;18.10;57.70;;;;;;5104679;27;43427;-59
2022/11/28 00:48:52;;;;;;;1.88;1.77;;;18.10;57.60;;;;;;5081841;27;44387;-59
2022/11/28 00:51:25;;;;;;;1.50;1.40;;;18.10;57.70;;;;;;5105822;27;43967;-59
2022/11/28 00:53:54;;;;;;;1.58;1.48;;;18.10;57.70;;;;;;5104430;27;43374;-59
2022/11/28 00:56:24;;;;;;;2.13;1.60;;;18.10;57.70;;;;;;5106003;27;43599;-59
2022/11/28 00:58:52;;;;;;;1.50;1.40;;;18.10;57.70;;;;;;5107283;27;43773;-59
2022/11/28 01:01:31;;;;;;;1.52;1.42;;;18.00;57.80;;;;;;5110581;27;43424;-59
2022/11/28 01:04:02;;;;;;;1.60;1.50;;;18.00;57.70;;;;;;5102360;27;43469;-59
2022/11/28 01:06:32;;;;;;;2.03;1.80;;;18.00;58.30;;;;;;5108068;27;44256;-59
2022/11/28 01:09:02;;;;;;;1.60;1.50;;;18.00;57.80;;;;;;5108632;27;44991;-59
2022/11/28 01:11:30;;;;;;;1.80;1.70;;;18.00;57.90;;;;;;5107976;27;44378;-59
2022/11/28 01:13:59;;;;;;;1.42;1.33;;;18.00;57.70;;;;;;5107860;27;43493;-59
2022/11/28 01:16:28;;;;;;;1.42;1.33;;;17.90;57.80;;;;;;5101360;27;43607;-59
2022/11/28 01:18:56;;;;;;;1.50;1.40;;;17.90;57.90;;;;;;5108681;27;45142;-59
2022/11/28 01:21:24;;;;;;;1.63;1.52;;;17.90;57.90;;;;;;5108089;27;44057;-59
2022/11/28 01:23:51;;;;;;;1.73;1.63;;;17.90;58.00;;;;;;5106752;27;43413;-59
2022/11/28 01:26:22;;;;;;;1.50;1.40;;;17.90;58.00;;;;;;5107264;27;43465;-59
2022/11/28 01:28:50;;;;;;;1.60;1.50;;;17.90;57.90;;;;;;5109707;27;44714;-59
2022/11/28 01:31:22;;;;;;;1.52;1.42;;;17.90;57.80;;;;;;5106829;27;43417;-59
2022/11/28 01:33:51;;;;;;;1.70;1.60;;;17.90;57.90;;;;;;5107656;27;43361;-59
2022/11/28 01:36:19;;;;;;;1.52;1.42;;;17.80;57.90;;;;;;5107091;27;43563;-59
2022/11/28 01:38:47;;;;;;;1.20;1.20;;;17.90;58.00;;;;;;5108884;27;43888;-59
2022/11/28 01:41:19;;;;;;;1.25;1.25;;;17.80;57.80;;;;;;5106707;27;43502;-59
2022/11/28 01:44:14;;;;;;;1.58;1.20;;;17.90;57.90;;;;;;5107561;27;43465;-59
2022/11/28 01:46:42;;;;;;;1.65;1.55;;;17.80;57.90;;;;;;5106592;27;44016;-59
2022/11/28 01:49:28;;;;;;;1.60;1.50;;;17.80;57.90;;;;;;5107199;27;45149;-59
2022/11/28 01:52:10;;;;;;;1.45;1.40;;;17.80;57.90;;;;;;5101004;27;43425;-59
2022/11/28 01:54:43;;;;;;;1.60;1.50;;;17.80;58.00;;;;;;5104915;27;43441;-59
2022/11/28 01:57:15;;;;;;;1.40;1.30;;;17.80;58.00;;;;;;5107323;27;43510;-59
2022/11/28 02:00:08;;;;;;;1.40;1.30;;;17.80;58.00;;;;;;5099865;27;43874;-59
2022/11/28 02:02:47;;;;;;;1.20;1.20;;;17.70;58.00;;;;;;5092971;27;43472;-59
2022/11/28 02:05:17;;;;;;;1.50;1.50;;;17.70;58.00;;;;;;5107044;27;43413;-59
2022/11/28 02:07:46;;;;;;;1.50;1.40;;;17.70;58.00;;;;;;5105704;27;43498;-59
2022/11/28 02:10:36;;;;;;;1.48;1.33;;;17.70;58.00;;;;;;5109143;27;43961;-59
2022/11/28 02:13:21;;;;;;;1.40;1.30;;;17.70;58.00;;;;;;5106253;27;43398;-59
2022/11/28 02:16:14;;;;;;;1.50;1.40;;;17.70;57.90;;;;;;5107378;27;43567;-59
2022/11/28 02:18:44;;;;;;;1.50;1.40;;;17.70;58.00;;;;;;5102153;27;43427;-59
2022/11/28 02:21:17;;;;;;;2.78;1.52;;;17.60;58.00;;;;;;5105810;27;44788;-59
2022/11/28 02:23:53;;;;;;;1.40;1.30;;;17.70;58.10;;;;;;5107780;27;43714;-59
2022/11/28 02:26:39;;;;;;;1.20;1.20;;;17.70;58.20;;;;;;5106365;27;43412;-59
2022/11/28 02:29:48;;;;;;;1.48;1.38;;;17.70;58.10;;;;;;5098680;27;43557;-59
2022/11/28 02:32:44;;;;;;;1.45;1.33;;;17.70;58.10;;;;;;5088811;27;43832;-59
2022/11/28 02:35:29;;;;;;;1.35;1.25;;;17.60;58.10;;;;;;5102771;27;43983;-59
2022/11/28 02:38:08;;;;;;;1.50;1.27;;;17.60;58.20;;;;;;5104884;27;43391;-59
2022/11/28 02:41:05;;;;;;;1.50;1.40;;;17.60;58.20;;;;;;5096940;27;43533;-59
2022/11/28 02:43:39;;;;;;;1.90;1.50;;;17.60;58.20;;;;;;5108385;27;43979;-59
2022/11/28 02:46:21;;;;;;;1.48;1.40;;;17.50;58.20;;;;;;5106406;27;43900;-59
2022/11/28 02:48:54;;;;;;;1.35;1.25;;;17.60;58.20;;;;;;5105082;27;43431;-59
2022/11/28 02:51:27;;;;;;;1.20;1.20;;;17.60;58.20;;;;;;5108487;27;43476;-59
2022/11/28 02:53:57;;;;;;;1.35;1.27;;;17.60;58.10;;;;;;5105711;27;44900;-59
2022/11/28 02:56:25;;;;;;;1.25;1.20;;;17.60;58.10;;;;;;5105615;27;43799;-59
2022/11/28 02:58:53;;;;;;;1.30;1.20;;;17.60;58.20;;;;;;5105552;27;44035;-59
2022/11/28 03:01:35;;;;;;;1.55;1.45;;;17.60;58.10;;;;;;5108761;27;43494;-59
2022/11/28 03:04:32;;;;;;;1.55;1.45;;;17.60;58.20;;;;;;5105570;27;44976;-59
2022/11/28 03:07:38;;;;;;;1.45;1.35;;;17.60;58.20;;;;;;5029535;27;43496;-59
2022/11/28 03:10:43;;;;;;;1.50;1.40;;;17.60;58.20;;;;;;5105211;27;43454;-59
2022/11/28 03:13:47;;;;;;;1.27;1.23;;;17.60;58.20;;;;;;5108481;27;43452;-59
2022/11/28 03:16:23;;;;;;;1.50;1.40;;;17.60;58.40;;;;;;5070273;27;43965;-59
2022/11/28 03:19:23;;;;;;;1.48;1.38;;;17.50;58.30;;;;;;5105805;27;43448;-59
2022/11/28 03:22:02;;;;;;;1.20;1.20;;;17.60;58.30;;;;;;5098665;27;43363;-59
2022/11/28 03:24:54;;;;;;;1.63;1.52;;;17.60;58.20;;;;;;5105285;27;43998;-59
2022/11/28 03:27:31;;;;;;;1.00;1.00;;;17.50;58.20;;;;;;5098682;27;44819;-59
2022/11/28 03:30:09;;;;;;;1.42;1.33;;;17.60;58.20;;;;;;5105721;27;43663;-59
2022/11/28 03:32:38;;;;;;;1.58;1.48;;;17.50;58.20;;;;;;5104681;27;43422;-59
2022/11/28 03:35:12;;;;;;;1.35;1.35;;;17.50;58.30;;;;;;5106586;27;43480;-59
2022/11/28 03:37:46;;;;;;;1.50;1.10;;;17.50;58.20;;;;;;5102857;27;44072;-59
2022/11/28 03:40:19;;;;;;;1.30;1.30;;;17.50;58.30;;;;;;5104572;27;43916;-58
2022/11/28 03:43:01;;;;;;;1.40;1.30;;;17.50;58.30;;;;;;5105140;27;43417;-59
2022/11/28 03:45:33;;;;;;;1.27;1.25;;;17.50;58.30;;;;;;5104921;27;43506;-59
2022/11/28 03:48:07;;;;;;;1.10;1.10;;;17.50;58.20;;;;;;5105452;27;44094;-59
2022/11/28 03:50:43;;;;;;;1.40;1.30;;;17.50;58.20;;;;;;5107511;27;44128;-59
2022/11/28 03:53:21;;;;;;;1.23;1.13;;;17.50;58.20;;;;;;5104633;27;43430;-59
2022/11/28 03:56:01;;;;;;;1.38;1.27;;;17.50;58.30;;;;;;5102455;27;43582;-59
2022/11/28 03:58:34;;;;;;;1.58;1.48;;;17.50;58.20;;;;;;5083246;27;44058;-58
2022/11/28 04:01:08;;;;;;;1.50;1.40;;;17.50;58.20;;;;;;5105386;27;44007;-59
2022/11/28 04:03:45;;;;;;;1.45;1.35;;;17.50;58.30;;;;;;5102238;27;43438;-59
2022/11/28 04:06:26;;;;;;;1.58;1.48;;;17.50;58.30;;;;;;5107166;27;43502;-59
2022/11/28 04:09:02;;;;;;;1.00;1.00;;;17.50;58.30;;;;;;5099877;27;43990;-59
2022/11/28 04:11:53;;;;;;;1.25;1.23;;;17.50;58.30;;;;;;5102377;27;43423;-59
2022/11/28 04:14:25;;;;;;;1.33;1.30;;;17.50;59.00;;;;;;5102778;27;43573;-59
2022/11/28 04:17:18;;;;;;;1.50;1.40;;;17.50;58.30;;;;;;5112261;27;43434;-59
2022/11/28 04:19:56;;;;;;;1.42;1.33;;;17.50;58.40;;;;;;5102239;27;44818;-59
2022/11/28 04:22:32;;;;;;;1.25;1.20;;;17.50;58.40;;;;;;5104871;27;43508;-59
2022/11/28 04:25:05;;;;;;;1.23;1.20;;;17.50;58.40;;;;;;5112626;27;44027;-59
2022/11/28 04:27:44;;;;;;;1.30;1.30;;;17.50;58.50;;;;;;5104814;27;43416;-59
2022/11/28 04:30:12;;;;;;;1.20;1.20;;;17.50;58.40;;;;;;5105156;27;44007;-59
2022/11/28 04:32:45;;;;;;;1.50;1.40;;;17.40;58.40;;;;;;5108240;27;43509;-59
2022/11/28 04:35:21;;;;;;;1.40;1.30;;;17.40;58.50;;;;;;5108116;27;43390;-59
2022/11/28 04:37:52;;;;;;;1.48;1.40;;;17.40;58.60;;;;;;5105711;27;43393;-59
2022/11/28 04:40:22;;;;;;;1.40;1.30;;;17.40;58.50;;;;;;5107530;27;43909;-59
2022/11/28 04:43:01;;;;;;;1.17;1.17;;;17.40;58.50;;;;;;5107654;27;43419;-59
2022/11/28 04:45:58;;;;;;;1.20;1.20;;;17.40;58.60;;;;;;5110455;27;43518;-59
2022/11/28 04:48:27;;;;;;;1.35;1.27;;;17.40;58.60;;;;;;5100207;27;43638;-58
2022/11/28 04:51:35;;;;;;;1.10;1.10;;;17.40;58.60;;;;;;5108634;27;44983;-59
2022/11/28 04:54:27;;;;;;;1.00;1.00;;;17.40;58.60;;;;;;5107094;27;43546;-59
2022/11/28 04:57:08;;;;;;;1.13;1.13;;;17.40;58.60;;;;;;5102923;27;43414;-59
2022/11/28 04:59:36;;;;;;;1.20;1.13;;;17.40;58.60;;;;;;5106239;27;43403;-59
2022/11/28 05:02:05;;;;;;;1.35;1.35;;;17.40;58.70;;;;;;5107432;27;44874;-59
2022/11/28 05:04:35;;;;;;;1.33;1.23;;;17.40;58.60;;;;;;5104976;27;43410;-59
2022/11/28 05:07:05;;;;;;;1.25;1.25;;;17.50;58.70;;;;;;5110052;27;43420;-59
2022/11/28 05:09:33;;;;;;;1.40;1.30;;;17.50;58.70;;;;;;5107350;27;43624;-59
2022/11/28 05:12:00;;;;;;;1.25;1.15;;;17.50;58.60;;;;;;5107162;27;44158;-59
2022/11/28 05:14:27;;;;;;;1.38;1.27;;;17.50;58.60;;;;;;5107585;27;43438;-59
2022/11/28 05:16:55;;;;;;;1.10;1.10;;;17.50;58.70;;;;;;5109399;27;43463;-59
2022/11/28 05:19:22;;;;;;;1.10;1.10;;;17.50;58.70;;;;;;5107989;27;43550;-59
2022/11/28 05:21:51;;;;;;;1.23;1.23;;;17.60;58.70;;;;;;5107587;27;43912;-59
2022/11/28 05:24:19;;;;;;;1.27;1.27;;;17.50;58.70;;;;;;5106759;27;44491;-59
2022/11/28 05:26:48;;;;;;;1.30;1.20;;;17.60;58.70;;;;;;5110003;27;43612;-59
2022/11/28 05:29:16;;;;;;;1.35;1.27;;;17.60;58.70;;;;;;5107192;27;44085;-59
2022/11/28 05:31:43;;;;;;;1.33;1.23;;;17.60;58.60;;;;;;5107198;27;44918;-59
2022/11/28 05:34:10;;;;;;;1.40;1.40;;;17.60;58.70;;;;;;5107156;27;43758;-59
2022/11/28 05:36:38;;;;;;;1.40;1.30;;;17.60;58.70;;;;;;5109641;27;43952;-59
2022/11/28 05:39:05;;;;;;;1.08;1.08;;;17.60;58.60;;;;;;5114297;27;43567;-59
2022/11/28 05:41:34;;;;;;;1.48;1.40;;;17.70;58.70;;;;;;5105261;27;43977;-59
2022/11/28 05:44:01;;;;;;;1.30;1.30;;;17.70;58.70;;;;;;5106497;27;43518;-59
2022/11/28 05:46:29;;;;;;;1.30;1.30;;;17.70;58.60;;;;;;5109985;27;43434;-59
2022/11/28 05:48:56;;;;;;;1.13;1.13;;;17.70;58.60;;;;;;5107138;27;43430;-59
2022/11/28 05:51:24;;;;;;;1.10;1.10;;;17.80;58.50;;;;;;5106661;27;44867;-59
2022/11/28 05:53:51;;;;;;;1.50;1.40;;;17.80;58.50;;;;;;5106873;27;43534;-59
2022/11/28 05:56:21;;;;;;;1.30;1.27;;;17.80;58.50;;;;;;5109744;27;43469;-59
2022/11/28 05:58:52;;;;;;;1.20;1.20;;;17.80;58.40;;;;;;5106325;27;43367;-59
2022/11/28 06:01:23;;;;;;;1.38;1.30;;;17.80;58.40;;;;;;5107175;27;43901;-59
2022/11/28 06:03:56;;;;;;;1.67;1.58;;;17.90;58.30;;;;;;5102647;27;43933;-59
2022/11/28 06:06:25;;;;;;;1.30;1.20;;;17.90;58.40;;;;;;5099320;27;43364;-59
2022/11/28 06:08:53;;;;;;;1.25;1.25;;;17.90;58.30;;;;;;5106540;27;43549;-59
2022/11/28 06:11:22;;;;;;;1.60;1.50;;;17.90;58.30;;;;;;5106724;27;44757;-59
2022/11/28 06:13:49;;;;;;;1.15;1.05;;;17.90;58.30;;;;;;5101385;27;43799;-59
2022/11/28 06:16:20;;;;;;;1.10;1.10;;;18.00;58.20;;;;;;5098530;27;43525;-59
2022/11/28 06:18:51;;;;;;;1.65;1.48;;;17.90;58.30;;;;;;5106054;27;43620;-59
2022/11/28 06:21:18;;;;;;;1.05;1.02;;;18.00;58.20;;;;;;5099877;27;44780;-59
2022/11/28 06:23:46;;;;;;;1.30;1.30;;;18.00;58.30;;;;;;5099319;27;43520;-59
2022/11/28 06:26:16;;;;;;;0.90;0.90;;;18.00;58.30;;;;;;5096803;27;43398;-59
2022/11/28 06:28:44;;;;;;;1.20;1.20;;;18.10;58.20;;;;;;5103285;27;43569;-59
2022/11/28 06:31:19;;;;;;;1.23;1.13;;;18.10;58.20;;;;;;5104901;27;44970;-59
2022/11/28 06:33:47;;;;;;;1.65;1.55;;;18.10;58.20;;;;;;5099805;27;43506;-59
2022/11/28 06:36:16;;;;;;;1.58;1.30;;;18.10;58.30;;;;;;5106515;27;43426;-59
2022/11/28 06:38:44;;;;;;;1.25;1.25;;;18.10;58.30;;;;;;5105502;27;43574;-59
2022/11/28 06:41:14;;;;;;;1.65;1.27;;;18.10;58.40;;;;;;5100053;27;43891;-59
2022/11/28 06:43:41;;;;;;;1.45;1.35;;;18.10;58.30;;;;;;5094578;27;43447;-59
2022/11/28 06:46:14;;;;;;;1.00;1.00;;;18.10;58.30;;;;;;5106473;27;43503;-59
2022/11/28 06:48:43;;;;;;;1.30;1.20;;;18.10;58.30;;;;;;5104413;27;43457;-59
2022/11/28 06:51:12;;;;;;;1.10;1.10;;;18.20;58.30;;;;;;5098825;27;43884;-59
2022/11/28 06:53:39;;;;;;;1.08;1.05;;;18.10;58.30;;;;;;5102930;27;43705;-59
2022/11/28 06:56:09;;;;;;;1.25;1.23;;;18.10;58.30;;;;;;5105758;27;43423;-59
2022/11/28 06:58:37;;;;;;;1.10;1.10;;;18.20;58.50;;;;;;5102790;27;43986;-59
2022/11/28 07:01:10;;;;;;;1.15;1.15;;;18.20;58.30;;;;;;5097690;27;44236;-59
2022/11/28 07:03:38;;;;;;;1.40;1.30;;;18.20;58.20;;;;;;5105325;27;43670;-59
2022/11/28 07:06:06;;;;;;;1.00;1.00;;;18.20;58.20;;;;;;5103440;27;43463;-58
2022/11/28 07:08:34;;;;;;;1.45;1.35;;;18.20;58.30;;;;;;5104628;27;43505;-59
2022/11/28 07:11:10;;;;;;;1.30;1.20;;;18.20;58.40;;;;;;5101027;27;44676;-59
2022/11/28 07:13:38;;;;;;;1.27;1.17;;;18.30;58.40;;;;;;5102183;27;43422;-58
2022/11/28 07:16:07;;;;;;;1.20;1.20;;;18.20;58.50;;;;;;5098885;27;43449;-59
2022/11/28 07:18:34;;;;;;;1.48;1.25;;;18.30;58.40;;;;;;5101448;27;43605;-58
2022/11/28 07:21:02;;;;;;;1.27;1.17;;;18.30;58.30;;;;;;5096973;27;43904;-59
2022/11/28 07:23:29;;;;;;;1.67;1.17;;;18.30;58.30;;;;;;5092604;27;43340;-58
2022/11/28 07:26:01;;;;;;;1.38;1.30;;;18.40;58.10;;;;;;5104086;27;43435;-59
2022/11/28 07:28:30;;;;;;;1.20;1.20;;;18.50;58.10;;;;;;5102719;27;43475;-59
2022/11/28 07:31:04;;;;;;;1.42;1.33;;;18.50;58.00;;;;;;5102006;27;43922;-59
2022/11/28 07:33:33;;;;;;;1.00;1.00;;;18.50;57.80;;;;;;5095112;27;43498;-58
2022/11/28 07:36:03;;;;;;;1.05;1.05;;;18.60;57.80;;;;;;5097492;27;43352;-58
2022/11/28 07:38:31;;;;;;;1.20;1.20;;;18.60;57.80;;;;;;5100220;27;43568;-58
2022/11/28 07:41:10;;;;;;;1.25;1.25;;;18.60;57.90;;;;;;5097396;27;44804;-59
2022/11/28 07:43:38;;;;;;;1.00;1.00;;;18.60;58.00;;;;;;5104377;27;43642;-59
2022/11/28 07:46:07;;;;;;;1.13;1.13;;;18.60;58.10;;;;;;5105468;27;43346;-59
2022/11/28 07:48:35;;;;;;;1.40;1.30;;;18.60;58.10;;;;;;5096431;27;43562;-59
2022/11/28 07:51:11;;;;;;;1.30;1.20;;;18.60;58.00;;;;;;5095763;27;44788;-59
2022/11/28 07:53:38;;;;;;;1.08;1.08;;;18.60;58.00;;;;;;5104840;27;43782;-59
2022/11/28 07:56:09;;;;;;;1.20;1.20;;;18.60;58.10;;;;;;5103295;27;43447;-60
2022/11/28 07:58:37;;;;;;;1.95;1.55;;;18.60;58.10;;;;;;5097744;27;43506;-59
2022/11/28 08:01:23;;;;;;;2.28;1.38;;;18.60;58.30;;;;;;5104975;27;44778;-59
2022/11/28 08:03:51;;;;;;;1.10;1.10;;;18.60;58.30;;;;;;5104760;27;45002;-59
2022/11/28 08:06:22;;;;;;;1.70;1.40;;;18.60;58.20;;;;;;5101429;27;43489;-59
2022/11/28 08:08:53;;;;;;;1.25;1.25;;;18.70;58.20;;;;;;5101304;27;43529;-58
2022/11/28 08:11:22;;;;;;;3.35;1.50;;;18.70;58.10;;;;;;5097233;27;44786;-59
2022/11/28 08:13:50;;;;;;;1.40;1.30;;;18.90;58.30;;;;;;5100188;27;43982;-59
2022/11/28 08:16:25;;;;;;;1.45;1.35;;;18.90;58.60;;;;;;5099543;27;43402;-59
2022/11/28 08:18:54;;;;;;;1.50;1.40;;;19.00;58.00;;;;;;5098483;27;43659;-59
2022/11/28 08:21:23;;;;;;;1.58;1.20;;;19.20;58.00;;;;;;5102075;27;45193;-59
2022/11/28 08:23:52;;;;;;;1.10;1.10;;;19.20;57.80;;;;;;5103717;27;43367;-59
2022/11/28 08:26:22;;;;;;;0.80;0.80;;;19.40;57.70;;;;;;5100997;27;43505;-59
2022/11/28 08:28:57;;;;;;;1.10;1.10;;;19.50;57.50;;;;;;5099569;27;44081;-59
2022/11/28 08:31:27;;;;;;;1.10;1.10;;;19.60;57.20;;;;;;5101357;27;43890;-59
2022/11/28 08:33:56;;;;;;;8.87;1.50;;;19.70;57.20;;;;;;5102791;27;43504;-59
2022/11/28 08:36:24;;;;;;;3.15;1.13;;;19.90;57.00;;;;;;5100833;27;43433;-59
2022/11/28 08:38:54;;;;;;;3.67;1.55;;;20.00;56.90;;;;;;5102243;27;43522;-59
2022/11/28 08:41:42;;;;;;;1.52;1.10;;;20.10;56.60;;;;;;5092597;27;44813;-59
2022/11/28 08:44:09;;;;;;;2.05;0.90;;;20.20;56.50;;;;;;5100783;27;43906;-59
2022/11/28 08:46:36;;;;;;;1.40;1.30;;;20.30;56.30;;;;;;5103606;27;43489;-59
2022/11/28 08:49:04;;;;;;;0.82;0.82;;;20.40;56.30;;;;;;5099991;27;43474;-60
2022/11/28 08:51:32;;;;;;;2.35;1.02;;;20.50;56.20;;;;;;5098570;27;44047;-59
2022/11/28 08:53:59;;;;;;;1.20;1.00;;;20.60;56.10;;;;;;5098028;27;43370;-59
2022/11/28 08:56:27;;;;;;;2.35;1.05;;;20.60;56.50;;;;;;5100112;27;44002;-59
2022/11/28 08:58:54;;;;;;;1.50;1.02;;;20.70;55.80;;;;;;5100437;27;43600;-59
2022/11/28 09:01:24;;;;;;;2.47;1.30;;;20.80;56.40;;;;;;5101136;27;44975;-59
2022/11/28 09:03:53;;;;;;;1.98;1.20;;;20.90;55.80;;;;;;5100532;27;43650;-59
2022/11/28 09:06:21;;;;;;;1.35;1.25;;;21.00;55.80;;;;;;5102746;27;43465;-59
2022/11/28 09:08:50;;;;;;;5.72;1.17;;;21.00;55.80;;;;;;5098966;27;43451;-61
2022/11/28 09:11:19;;;;;;;1.20;0.90;;;21.10;56.00;;;;;;5105620;27;44005;-62
2022/11/28 09:13:47;;;;;;;3.35;1.00;;;21.10;55.80;;;;;;5099585;27;44153;-61
2022/11/28 09:16:15;;;;;;;3.05;1.20;;;21.20;55.70;;;;;;5100573;27;43442;-61
2022/11/28 09:18:43;;;;;;;1.40;0.85;;;21.20;55.80;;;;;;5102494;27;43442;-62
2022/11/28 09:21:12;;;;;;;1.95;1.05;;;21.30;55.60;;;;;;5103014;27;44092;-62
2022/11/28 09:23:42;;;;;;;2.00;1.20;;;21.40;55.60;;;;;;5084458;27;43464;-61
2022/11/28 09:26:18;;;;;;;1.23;1.10;;;21.50;55.60;;;;;;5103746;27;43454;-61
2022/11/28 09:28:46;;;;;;;1.30;1.10;;;21.50;55.40;;;;;;5102336;27;43532;-62
2022/11/28 09:31:15;;;;;;;2.35;1.20;;;21.60;55.30;;;;;;5102857;27;44384;-59
2022/11/28 09:33:44;;;;;;;1.85;1.00;;;21.60;55.30;;;;;;5103436;27;43445;-60
2022/11/28 09:36:16;;;;;;;0.90;0.90;;;21.70;55.90;;;;;;5103348;27;43454;-60
2022/11/28 09:38:45;;;;;;;1.55;1.00;;;21.80;55.20;;;;;;5101088;27;43500;-60
2022/11/28 09:41:27;;;;;;;2.10;0.82;;;21.80;55.10;;;;;;5103200;27;45142;-60
2022/11/28 09:44:00;;;;;;;1.55;0.93;;;21.90;55.00;;;;;;5102387;27;43529;-60
2022/11/28 09:46:31;;;;;;;1.35;1.25;;;21.90;55.00;;;;;;5101870;27;43469;-60
2022/11/28 09:49:03;;;;;;;1.13;0.82;;;21.90;54.90;;;;;;5101828;27;43466;-60
2022/11/28 09:51:51;;;;;;;1.73;0.93;;;22.00;54.90;;;;;;5103163;27;44031;-60
2022/11/28 09:54:24;;;;;;;0.98;0.90;;;22.00;55.00;;;;;;5102240;27;43375;-61
2022/11/28 09:56:52;;;;;;;1.38;1.23;;;22.00;54.80;;;;;;5102939;27;43518;-60
2022/11/28 09:59:23;;;;;;;1.67;0.95;;;22.10;54.90;;;;;;5102493;27;43686;-61
2022/11/28 10:02:12;;;;;;;1.52;0.80;;;22.20;55.00;;;;;;5101686;27;44051;-60
2022/11/28 10:04:41;;;;;;;0.93;0.90;;;22.30;54.80;;;;;;5099020;27;43431;-61
2022/11/28 10:07:31;;;;;;;0.80;0.80;;;22.40;54.80;;;;;;5103134;27;43828;-61
2022/11/28 10:10:23;;;;;;;0.67;0.67;;;22.40;54.60;;;;;;5100653;27;43447;-60
2022/11/28 10:13:07;;;;;;;1.08;0.98;;;22.50;54.50;;;;;;5102622;27;44063;-60
2022/11/28 10:16:14;;;;;;;0.95;0.77;;;22.60;54.50;;;;;;5102179;27;43444;-60
2022/11/28 10:18:51;;;;;;;1.58;1.00;;;22.70;54.20;;;;;;5101786;27;43531;-60
2022/11/28 10:21:35;;;;;;;1.00;0.90;;;22.70;54.80;;;;;;5099913;27;43457;-61
2022/11/28 10:24:12;;;;;;;0.73;0.73;;;22.80;53.90;;;;;;5101380;27;44859;-61
2022/11/28 10:26:45;;;;;;;0.70;0.70;;;22.90;54.00;;;;;;5103073;27;43910;-60
2022/11/28 10:29:26;;;;;;;0.80;0.80;;;22.90;53.80;;;;;;5101422;27;43403;-60
2022/11/28 10:31:58;;;;;;;0.70;0.70;;;22.90;53.70;;;;;;5098275;27;43462;-60
2022/11/28 10:34:49;;;;;;;0.68;0.68;;;23.00;53.60;;;;;;5099211;27;45085;-62
2022/11/28 10:37:16;;;;;;;0.80;0.80;;;23.00;53.60;;;;;;5099196;27;44148;-60
2022/11/28 10:39:47;;;;;;;0.70;0.70;;;23.00;53.80;;;;;;5100206;27;43454;-60
2022/11/28 10:42:21;;;;;;;1.40;0.80;;;23.00;53.80;;;;;;5102504;27;43508;-60
2022/11/28 10:45:06;;;;;;;0.82;0.82;;;23.00;53.80;;;;;;5101897;27;44906;-60
2022/11/28 10:47:48;;;;;;;0.82;0.80;;;22.90;53.90;;;;;;5100593;27;43510;-60
2022/11/28 10:50:20;;;;;;;0.90;0.90;;;22.90;53.90;;;;;;5102155;27;43366;-60
2022/11/28 10:53:03;;;;;;;1.13;1.00;;;22.90;54.10;;;;;;5101502;27;43500;-60
2022/11/28 10:55:37;;;;;;;1.63;1.52;;;22.80;54.10;;;;;;5097979;27;44051;-60
2022/11/28 10:58:07;;;;;;;1.85;1.60;;;22.80;54.20;;;;;;5101907;27;43484;-60
2022/11/28 11:00:37;;;;;;;1.50;1.40;;;22.80;54.30;;;;;;5101110;27;43570;-60
2022/11/28 11:03:10;;;;;;;1.50;1.40;;;22.70;54.20;;;;;;5100612;27;43569;-60
2022/11/28 11:05:38;;;;;;;1.58;1.25;;;22.70;54.30;;;;;;5100378;27;44056;-61
2022/11/28 11:08:21;;;;;;;1.50;1.40;;;22.70;54.30;;;;;;5101050;27;43435;-60
2022/11/28 11:10:59;;;;;;;1.95;1.52;;;22.80;54.50;;;;;;5102964;27;43464;-60
2022/11/28 11:13:31;;;;;;;1.40;1.30;;;22.70;54.40;;;;;;5096037;27;43471;-60
2022/11/28 11:16:02;;;;;;;;;;;22.70;54.40;;;;;;5099940;27;44037;-60
2022/11/28 11:18:49;;;;;;;1.58;1.48;;;22.70;54.40;;;;;;5082932;27;44145;-60
2022/11/28 11:21:20;;;;;;;1.40;1.30;;;22.70;54.50;;;;;;5100226;27;43442;-59
2022/11/28 11:24:08;;;;;;;1.50;1.40;;;22.70;54.60;;;;;;5101228;27;43582;-60
2022/11/28 11:26:40;;;;;;;1.58;1.48;;;22.70;54.60;;;;;;5100089;27;43780;-60
2022/11/28 11:29:29;;;;;;;1.67;1.58;;;22.60;54.50;;;;;;5099198;27;43481;-60
2022/11/28 11:32:03;;;;;;;1.70;1.35;;;22.60;54.60;;;;;;5083942;27;43461;-60
2022/11/28 11:34:45;;;;;;;1.60;1.50;;;22.60;54.70;;;;;;5080384;27;43391;-60
2022/11/28 11:37:35;;;;;;;1.70;1.48;;;22.60;54.70;;;;;;5100294;27;44069;-60
2022/11/28 11:40:25;;;;;;;1.60;1.50;;;22.50;54.70;;;;;;5098201;27;43407;-60
2022/11/28 11:42:56;;;;;;;1.88;1.60;;;22.50;54.80;;;;;;5080457;28;43454;-60
2022/11/28 11:45:32;;;;;;;1.75;1.42;;;22.50;55.00;;;;;;5077926;27;43531;-60
2022/11/28 11:48:05;;;;;;;1.52;1.42;;;22.40;55.00;;;;;;5076783;28;44054;-60
2022/11/28 11:50:53;;;;;;;1.27;1.27;;;22.40;55.10;;;;;;5076702;28;43783;-60
2022/11/28 11:53:20;;;;;;;1.20;1.10;;;22.40;55.20;;;;;;5080311;27;43593;-60
2022/11/28 11:55:54;;;;;;;1.65;1.55;;;22.30;55.30;;;;;;5073909;27;43437;-60
2022/11/28 11:58:29;;;;;;;1.58;1.10;;;22.30;55.30;;;;;;5076535;28;43998;-60
2022/11/28 12:00:58;;;;;;;1.10;1.10;;;22.30;55.50;;;;;;5080030;27;43493;-59
2022/11/28 12:03:48;;;;;;;1.40;1.30;;;22.30;55.40;;;;;;5079426;28;43918;-59
2022/11/28 12:06:23;;;;;;;1.30;1.30;;;22.20;55.50;;;;;;5077374;28;43521;-60
2022/11/28 12:09:11;;;;;;;1.30;1.20;;;22.10;56.10;;;;;;5080450;27;43820;-60
2022/11/28 12:11:46;;;;;;;1.52;1.30;;;22.10;55.50;;;;;;5074910;28;43936;-60
2022/11/28 12:14:26;;;;;;;1.48;1.30;;;22.10;55.70;;;;;;5077537;27;43401;-60
2022/11/28 12:17:21;;;;;;;1.27;1.17;;;22.10;55.80;;;;;;5078788;27;43502;-60
2022/11/28 12:20:24;;;;;;;1.10;1.00;;;22.00;55.80;;;;;;5077642;28;45403;-60
2022/11/28 12:23:01;;;;;;;1.00;1.00;;;22.00;55.90;;;;;;5080081;28;43480;-60
2022/11/28 12:26:15;;;;;;;1.38;1.17;;;21.90;55.90;;;;;;5071761;28;43445;-60
2022/11/28 12:28:54;;;;;;;0.95;0.95;;;21.90;56.00;;;;;;5052400;27;43497;-60
2022/11/28 12:31:57;;;;;;;1.10;1.05;;;21.90;56.00;;;;;;5079960;28;44325;-60
2022/11/28 12:34:33;;;;;;;1.50;1.40;;;21.90;56.00;;;;;;5074545;28;43499;-60
2022/11/28 12:37:38;;;;;;;1.15;1.05;;;21.90;56.00;;;;;;5077976;28;43451;-60
2022/11/28 12:40:37;;;;;;;0.82;0.82;;;21.90;56.10;;;;;;5074972;27;43602;-60
2022/11/28 12:43:17;;;;;;;1.08;0.90;;;21.80;56.00;;;;;;5099585;27;43679;-60
2022/11/28 12:46:09;;;;;;;1.27;1.20;;;21.80;56.10;;;;;;5099746;27;43447;-60
2022/11/28 12:49:13;;;;;;;0.98;0.98;;;21.80;56.10;;;;;;5099973;27;43456;-60
2022/11/28 12:51:59;;;;;;;0.90;0.90;;;21.80;56.10;;;;;;5082380;27;43522;-60
2022/11/28 12:54:45;;;;;;;1.00;1.00;;;21.80;56.00;;;;;;5085157;27;44043;-60
2022/11/28 12:57:18;;;;;;;0.90;0.90;;;21.80;56.10;;;;;;5084772;27;43470;-60
2022/11/28 13:00:04;;;;;;;0.80;0.80;;;21.80;56.00;;;;;;5103623;27;43414;-60
2022/11/28 13:02:50;;;;;;;1.23;1.13;;;21.70;56.00;;;;;;5104058;27;43470;-59
2022/11/28 13:05:43;;;;;;;1.20;1.08;;;21.70;56.10;;;;;;5102110;27;43788;-60
2022/11/28 13:08:23;;;;;;;1.10;1.10;;;21.70;55.90;;;;;;5101051;27;43450;-59
2022/11/28 13:11:18;;;;;;;0.77;0.70;;;21.70;55.90;;;;;;5102010;27;43430;-60
2022/11/28 13:13:48;;;;;;;1.00;1.00;;;21.70;55.80;;;;;;5103438;27;43506;-60
2022/11/28 13:16:25;;;;;;;1.00;1.00;;;21.70;55.90;;;;;;5103242;27;43973;-60
2022/11/28 13:18:59;;;;;;;1.00;1.00;;;21.70;55.80;;;;;;5103088;27;43534;-60
2022/11/28 13:21:59;;;;;;;0.90;0.90;;;21.70;55.70;;;;;;5102556;27;43523;-60
2022/11/28 13:25:11;;;;;;;1.58;0.80;;;21.70;55.70;;;;;;5103940;27;43529;-60
2022/11/28 13:28:02;;;;;;;1.27;1.00;;;21.70;55.70;;;;;;5076668;27;43992;-60
2022/11/28 13:30:36;;;;;;;1.10;1.10;;;21.70;55.70;;;;;;5099865;27;43476;-59